createdAt,value
2017-11-17T00:00:40.646Z,1.70
2017-11-17T00:03:08.154Z,1.70
2017-11-17T00:05:37.166Z,1.90
2017-11-17T00:08:04.772Z,1.90
2017-11-17T00:10:32.243Z,1.90
2017-11-17T00:12:59.744Z,1.80
2017-11-17T00:15:27.212Z,1.70
2017-11-17T00:17:55.491Z,1.90
2017-11-17T00:20:23.743Z,1.90
2017-11-17T00:22:51.229Z,1.90
2017-11-17T00:25:19.495Z,2.00
2017-11-17T00:27:47.746Z,2.00
2017-11-17T00:30:16.064Z,2.00
2017-11-17T00:32:44.318Z,1.90
2017-11-17T00:35:11.851Z,1.90
2017-11-17T00:37:39.334Z,1.90
2017-11-17T00:40:06.837Z,1.80
2017-11-17T00:42:34.323Z,1.90
2017-11-17T00:45:01.823Z,1.90
2017-11-17T00:47:30.080Z,1.70
2017-11-17T00:49:57.574Z,1.70
2017-11-17T00:52:25.045Z,1.80
2017-11-17T00:54:52.539Z,1.80
2017-11-17T00:57:21.242Z,1.90
2017-11-17T00:59:48.746Z,2.00
2017-11-17T01:02:16.227Z,2.00
2017-11-17T01:04:43.730Z,2.00
2017-11-17T01:07:11.984Z,1.90
2017-11-17T01:09:40.252Z,1.80
2017-11-17T01:12:07.740Z,1.70
2017-11-17T01:14:36.017Z,1.70
2017-11-17T01:17:04.262Z,1.80
2017-11-17T01:19:31.877Z,1.80
2017-11-17T01:21:59.355Z,1.80
2017-11-17T01:24:26.840Z,1.90
2017-11-17T01:26:54.347Z,1.90
2017-11-17T01:29:21.847Z,1.80
2017-11-17T01:31:49.338Z,1.80
2017-11-17T01:34:17.626Z,1.90
2017-11-17T01:36:45.882Z,1.90
2017-11-17T01:39:13.374Z,1.90
2017-11-17T01:41:40.859Z,2.00
2017-11-17T01:44:08.353Z,1.80
2017-11-17T01:46:36.612Z,1.90
2017-11-17T01:49:04.078Z,1.90
2017-11-17T01:51:31.657Z,1.90
2017-11-17T01:53:59.915Z,2.00
2017-11-17T01:56:27.407Z,1.90
2017-11-17T01:58:54.905Z,1.90
2017-11-17T02:01:22.394Z,1.80
2017-11-17T02:03:49.899Z,1.80
2017-11-17T02:06:17.389Z,1.90
2017-11-17T02:08:44.861Z,1.90
2017-11-17T02:11:12.450Z,2.00
2017-11-17T02:13:40.705Z,1.90
2017-11-17T02:16:08.209Z,1.90
2017-11-17T02:18:35.691Z,1.90
2017-11-17T02:21:03.170Z,2.00
2017-11-17T02:23:30.675Z,2.00
2017-11-17T02:25:58.175Z,2.10
2017-11-17T02:28:25.656Z,2.00
2017-11-17T02:30:53.127Z,2.00
2017-11-17T02:33:21.371Z,2.10
2017-11-17T02:35:48.854Z,2.10
2017-11-17T02:38:16.343Z,2.10
2017-11-17T02:40:43.866Z,2.10
2017-11-17T02:43:12.137Z,2.00
2017-11-17T02:45:39.627Z,2.00
2017-11-17T02:48:07.869Z,2.00
2017-11-17T02:50:36.276Z,2.00
2017-11-17T02:53:04.541Z,2.10
2017-11-17T02:55:32.779Z,2.00
2017-11-17T02:58:00.267Z,2.00
2017-11-17T03:00:28.514Z,2.00
2017-11-17T03:03:08.839Z,1.90
2017-11-17T03:05:36.323Z,1.90
2017-11-17T03:08:03.830Z,1.90
2017-11-17T03:10:32.095Z,2.00
2017-11-17T03:12:59.570Z,2.00
2017-11-17T03:15:27.812Z,2.10
2017-11-17T03:17:55.313Z,2.10
2017-11-17T03:20:22.789Z,2.00
2017-11-17T03:22:50.329Z,2.10
2017-11-17T03:25:17.830Z,2.10
2017-11-17T03:27:45.321Z,2.00
2017-11-17T03:30:13.578Z,2.00
2017-11-17T03:32:41.055Z,2.00
2017-11-17T03:35:09.336Z,2.00
2017-11-17T03:37:37.567Z,2.00
2017-11-17T03:40:05.171Z,2.00
2017-11-17T03:42:32.671Z,2.10
2017-11-17T03:45:00.140Z,2.10
2017-11-17T03:47:27.616Z,2.00
2017-11-17T03:49:55.154Z,2.00
2017-11-17T03:52:22.633Z,2.10
2017-11-17T03:54:50.119Z,2.10
2017-11-17T03:57:18.369Z,2.10
2017-11-17T03:59:45.870Z,2.10
2017-11-17T04:02:14.123Z,2.20
2017-11-17T04:04:41.651Z,2.20
2017-11-17T04:07:09.142Z,2.20
2017-11-17T04:09:36.622Z,2.30
2017-11-17T04:12:04.909Z,2.30
2017-11-17T04:14:33.135Z,2.30
2017-11-17T04:17:00.639Z,2.30
2017-11-17T04:19:28.113Z,2.30
2017-11-17T04:21:55.601Z,2.30
2017-11-17T04:24:23.095Z,2.30
2017-11-17T04:26:51.353Z,2.20
2017-11-17T04:29:18.824Z,2.20
2017-11-17T04:31:47.072Z,2.20
2017-11-17T04:34:14.545Z,2.20
2017-11-17T04:36:42.044Z,2.30
2017-11-17T04:39:09.517Z,2.30
2017-11-17T04:41:37.020Z,2.30
2017-11-17T04:44:05.264Z,2.20
2017-11-17T04:46:32.756Z,2.20
2017-11-17T04:49:00.226Z,2.30
2017-11-17T04:51:28.521Z,2.40
2017-11-17T04:53:55.993Z,2.30
2017-11-17T04:56:23.466Z,2.40
2017-11-17T04:58:51.023Z,2.30
2017-11-17T05:01:18.495Z,2.30
2017-11-17T05:03:45.984Z,2.30
2017-11-17T05:06:14.224Z,2.20
2017-11-17T05:08:41.818Z,2.20
2017-11-17T05:11:10.059Z,2.20
2017-11-17T05:13:37.561Z,2.20
2017-11-17T05:16:05.809Z,2.10
2017-11-17T05:18:33.410Z,2.10
2017-11-17T05:21:00.890Z,2.10
2017-11-17T05:23:28.385Z,2.10
2017-11-17T05:25:55.881Z,2.20
2017-11-17T05:28:24.137Z,2.20
2017-11-17T05:30:51.628Z,2.20
2017-11-17T05:33:19.101Z,2.20
2017-11-17T05:35:46.577Z,2.20
2017-11-17T05:38:14.077Z,2.30
2017-11-17T05:40:42.317Z,2.20
2017-11-17T05:43:09.842Z,2.20
2017-11-17T05:45:37.317Z,2.20
2017-11-17T05:48:04.796Z,2.20
2017-11-17T05:50:32.303Z,2.20
2017-11-17T05:52:59.793Z,2.20
2017-11-17T05:55:27.311Z,2.30
2017-11-17T05:57:55.550Z,2.40
2017-11-17T06:00:23.041Z,2.30
2017-11-17T06:02:51.282Z,2.30
2017-11-17T06:05:19.102Z,2.30
2017-11-17T06:07:46.588Z,2.40
2017-11-17T06:10:14.096Z,2.40
2017-11-17T06:12:42.335Z,2.40
2017-11-17T06:15:09.818Z,2.40
2017-11-17T06:17:38.059Z,2.30
2017-11-17T06:20:05.568Z,2.30
2017-11-17T06:22:33.828Z,2.30
2017-11-17T06:25:02.112Z,2.30
2017-11-17T06:27:30.359Z,2.30
2017-11-17T06:29:57.850Z,2.30
2017-11-17T06:32:26.110Z,2.30
2017-11-17T06:34:53.594Z,2.30
2017-11-17T06:37:21.085Z,2.30
2017-11-17T06:40:03.123Z,2.30
2017-11-17T06:42:30.660Z,2.30
2017-11-17T06:44:58.125Z,2.30
2017-11-17T06:47:25.614Z,2.40
2017-11-17T06:49:53.849Z,2.40
2017-11-17T06:52:21.542Z,2.30
2017-11-17T06:54:49.797Z,2.40
2017-11-17T06:57:17.291Z,2.40
2017-11-17T06:59:45.552Z,2.50
2017-11-17T07:02:13.794Z,2.40
2017-11-17T07:04:41.272Z,2.40
2017-11-17T07:07:08.772Z,2.40
2017-11-17T07:09:36.277Z,2.40
2017-11-17T07:12:03.772Z,2.50
2017-11-17T07:14:32.039Z,2.50
2017-11-17T07:17:00.286Z,2.60
2017-11-17T07:19:27.766Z,2.50
2017-11-17T07:21:55.281Z,2.60
2017-11-17T07:24:23.786Z,2.60
2017-11-17T07:26:51.297Z,2.60
2017-11-17T07:29:18.762Z,2.60
2017-11-17T07:31:46.238Z,2.60
2017-11-17T07:34:13.751Z,2.60
2017-11-17T07:36:42.012Z,2.60
2017-11-17T07:39:09.530Z,2.60
2017-11-17T07:41:37.014Z,2.60
2017-11-17T07:44:04.587Z,2.70
2017-11-17T07:46:33.373Z,2.60
2017-11-17T07:49:00.870Z,2.60
2017-11-17T07:51:28.342Z,2.60
2017-11-17T07:53:55.839Z,2.60
2017-11-17T07:56:23.344Z,2.60
2017-11-17T07:58:50.870Z,2.70
2017-11-17T08:01:19.138Z,2.70
2017-11-17T08:03:46.633Z,2.70
2017-11-17T08:06:14.130Z,2.60
2017-11-17T08:08:42.847Z,2.70
2017-11-17T08:11:10.320Z,2.70
2017-11-17T08:13:38.585Z,2.70
2017-11-17T08:16:06.830Z,2.70
2017-11-17T08:18:51.314Z,2.70
2017-11-17T08:21:18.803Z,2.70
2017-11-17T08:23:46.278Z,2.70
2017-11-17T08:26:13.751Z,2.80
2017-11-17T08:28:41.261Z,2.80
2017-11-17T08:31:09.505Z,2.80
2017-11-17T08:33:37.037Z,2.80
2017-11-17T08:36:04.506Z,2.90
2017-11-17T08:38:32.003Z,2.90
2017-11-17T08:40:59.486Z,3.00
2017-11-17T08:43:26.961Z,3.00
2017-11-17T08:45:55.226Z,3.00
2017-11-17T08:48:22.712Z,3.00
2017-11-17T08:50:50.196Z,2.90
2017-11-17T08:53:17.803Z,3.10
2017-11-17T08:55:45.297Z,3.10
2017-11-17T08:58:12.784Z,3.10
2017-11-17T09:00:40.282Z,3.20
2017-11-17T09:03:07.755Z,3.20
2017-11-17T09:05:35.272Z,3.10
2017-11-17T09:08:03.512Z,3.10
2017-11-17T09:10:31.021Z,3.10
2017-11-17T09:12:58.523Z,3.20
2017-11-17T09:15:26.009Z,3.10
2017-11-17T09:17:54.258Z,3.20
2017-11-17T09:20:21.794Z,3.20
2017-11-17T09:22:49.293Z,3.20
2017-11-17T09:25:17.546Z,3.30
2017-11-17T09:27:45.993Z,3.30
2017-11-17T09:30:13.465Z,3.20
2017-11-17T09:32:40.976Z,3.10
2017-11-17T09:35:09.223Z,3.30
2017-11-17T09:37:36.750Z,3.30
2017-11-17T09:40:04.252Z,3.30
2017-11-17T09:42:31.758Z,3.40
2017-11-17T09:44:59.240Z,3.30
2017-11-17T09:47:26.736Z,3.40
2017-11-17T09:49:54.208Z,3.40
2017-11-17T09:52:22.496Z,3.40
2017-11-17T09:54:49.989Z,3.40
2017-11-17T09:57:17.501Z,3.50
2017-11-17T09:59:45.764Z,3.50
2017-11-17T10:02:13.356Z,3.50
2017-11-17T10:04:40.864Z,3.60
2017-11-17T10:07:08.357Z,3.60
2017-11-17T10:09:36.612Z,3.60
2017-11-17T10:12:04.865Z,3.70
2017-11-17T10:14:32.359Z,3.70
2017-11-17T10:17:00.646Z,3.80
2017-11-17T10:19:28.129Z,3.70
2017-11-17T10:21:55.594Z,3.70
2017-11-17T10:24:23.076Z,3.80
2017-11-17T10:26:50.551Z,3.80
2017-11-17T10:29:18.042Z,3.80
2017-11-17T10:31:45.614Z,3.90
2017-11-17T10:34:14.146Z,3.90
2017-11-17T10:36:41.636Z,3.90
2017-11-17T10:39:09.173Z,3.80
2017-11-17T10:41:36.646Z,3.70
2017-11-17T10:44:04.945Z,3.70
2017-11-17T10:46:32.434Z,3.60
2017-11-17T10:48:59.923Z,3.70
2017-11-17T10:51:27.433Z,3.80
2017-11-17T10:53:54.926Z,3.80
2017-11-17T10:56:25.260Z,3.80
2017-11-17T10:58:52.769Z,3.80
2017-11-17T11:01:20.239Z,3.80
2017-11-17T11:03:47.755Z,3.90
2017-11-17T11:06:15.260Z,3.90
2017-11-17T11:08:42.767Z,4.00
2017-11-17T11:11:16.746Z,4.00
2017-11-17T11:13:45.033Z,4.00
2017-11-17T11:16:12.517Z,4.00
2017-11-17T11:18:40.752Z,4.10
2017-11-17T11:21:08.267Z,4.10
2017-11-17T11:23:35.765Z,4.10
2017-11-17T11:26:03.261Z,4.10
2017-11-17T11:28:31.506Z,4.10
2017-11-17T11:30:59.001Z,4.10
2017-11-17T11:33:27.243Z,4.20
2017-11-17T11:35:54.757Z,4.10
2017-11-17T11:38:23.013Z,4.20
2017-11-17T11:40:51.270Z,4.20
2017-11-17T11:43:18.749Z,4.20
2017-11-17T11:45:46.247Z,4.20
2017-11-17T11:48:13.725Z,4.20
2017-11-17T11:50:42.730Z,4.20
2017-11-17T11:53:10.210Z,4.20
2017-11-17T11:55:38.473Z,4.20
2017-11-17T11:58:06.716Z,4.20
2017-11-17T12:00:34.216Z,4.20
2017-11-17T12:03:02.485Z,4.20
2017-11-17T12:05:30.737Z,4.20
2017-11-17T12:07:58.213Z,4.10
2017-11-17T12:10:25.724Z,4.10
2017-11-17T12:12:53.206Z,4.10
2017-11-17T12:15:20.711Z,4.10
2017-11-17T12:17:48.952Z,4.20
2017-11-17T12:20:16.435Z,4.20
2017-11-17T12:22:44.694Z,4.20
2017-11-17T12:25:12.182Z,4.20
2017-11-17T12:27:39.870Z,4.30
2017-11-17T12:30:07.347Z,4.30
2017-11-17T12:32:34.951Z,4.40
2017-11-17T12:35:03.208Z,4.40
2017-11-17T12:37:30.713Z,4.40
2017-11-17T12:39:58.193Z,4.40
2017-11-17T12:42:25.690Z,4.40
2017-11-17T12:44:53.945Z,4.40
2017-11-17T12:47:21.426Z,4.30
2017-11-17T12:49:49.682Z,4.30
2017-11-17T12:52:17.185Z,4.30
2017-11-17T12:54:44.671Z,4.30
2017-11-17T12:57:12.182Z,4.30
2017-11-17T12:59:40.424Z,4.30
2017-11-17T13:02:07.937Z,4.30
2017-11-17T13:04:35.410Z,4.30
2017-11-17T13:07:02.899Z,4.30
2017-11-17T13:09:30.382Z,4.20
2017-11-17T13:11:58.687Z,4.30
2017-11-17T13:14:26.172Z,4.30
2017-11-17T13:16:53.658Z,4.30
2017-11-17T13:19:21.905Z,4.30
2017-11-17T13:21:49.374Z,4.30
2017-11-17T13:24:16.856Z,4.30
2017-11-17T13:26:44.353Z,4.30
2017-11-17T13:29:11.833Z,4.30
2017-11-17T13:31:39.308Z,4.30
2017-11-17T13:34:06.874Z,4.30
2017-11-17T13:36:34.362Z,4.30
2017-11-17T13:39:02.609Z,4.30
2017-11-17T13:41:30.868Z,4.30
2017-11-17T13:43:58.370Z,4.30
2017-11-17T13:46:26.620Z,4.40
2017-11-17T13:48:54.134Z,4.40
2017-11-17T13:51:21.640Z,4.40
2017-11-17T13:53:50.652Z,4.30
2017-11-17T13:56:18.129Z,4.30
2017-11-17T13:58:45.621Z,4.40
2017-11-17T14:01:13.109Z,4.40
2017-11-17T14:03:42.043Z,4.40
2017-11-17T14:06:09.521Z,4.40
2017-11-17T14:08:37.001Z,4.40
2017-11-17T14:11:04.478Z,4.40
2017-11-17T14:13:33.476Z,4.50
2017-11-17T14:16:01.746Z,4.50
2017-11-17T14:18:29.237Z,4.50
2017-11-17T14:20:56.773Z,4.50
2017-11-17T14:23:25.048Z,4.40
2017-11-17T14:25:52.623Z,4.40
2017-11-17T14:28:20.877Z,4.40
2017-11-17T14:30:48.365Z,4.40
2017-11-17T14:33:15.853Z,4.40
2017-11-17T14:35:43.355Z,4.40
2017-11-17T14:38:10.844Z,4.40
2017-11-17T14:40:38.367Z,4.40
2017-11-17T14:43:05.853Z,4.40
2017-11-17T14:45:34.099Z,4.40
2017-11-17T14:48:01.584Z,4.40
2017-11-17T14:50:29.855Z,4.40
2017-11-17T14:52:58.096Z,4.40
2017-11-17T14:55:25.627Z,4.40
2017-11-17T14:57:53.094Z,4.40
2017-11-17T15:00:20.580Z,4.30
2017-11-17T15:02:49.585Z,4.30
2017-11-17T15:05:18.236Z,4.30
2017-11-17T15:07:45.858Z,4.30
2017-11-17T15:10:13.341Z,4.30
2017-11-17T15:12:40.838Z,4.30
2017-11-17T15:15:08.310Z,4.30
2017-11-17T15:17:37.588Z,4.30
2017-11-17T15:20:06.599Z,4.30
2017-11-17T15:22:34.862Z,4.30
2017-11-17T15:25:02.341Z,4.30
2017-11-17T15:27:30.614Z,4.30
2017-11-17T15:29:58.855Z,4.30
2017-11-17T15:32:26.347Z,4.30
2017-11-17T15:34:54.617Z,4.30
2017-11-17T15:37:22.888Z,4.30
2017-11-17T15:39:51.887Z,4.30
2017-11-17T15:42:19.377Z,4.30
2017-11-17T15:44:46.849Z,4.30
2017-11-17T15:47:14.330Z,4.30
2017-11-17T15:49:41.817Z,4.30
2017-11-17T15:52:10.083Z,4.30
2017-11-17T15:54:37.560Z,4.30
2017-11-17T15:57:05.820Z,4.30
2017-11-17T15:59:34.802Z,4.30
2017-11-17T16:02:04.749Z,4.30
2017-11-17T16:04:33.003Z,4.30
2017-11-17T16:07:00.480Z,4.30
2017-11-17T16:09:28.738Z,4.30
2017-11-17T16:11:56.237Z,4.30
2017-11-17T16:14:23.706Z,4.30
2017-11-17T16:16:51.205Z,4.30
2017-11-17T16:19:18.702Z,4.30
2017-11-17T16:21:47.106Z,4.30
2017-11-17T16:24:14.600Z,4.30
2017-11-17T16:26:42.076Z,4.30
2017-11-17T16:29:09.550Z,4.30
2017-11-17T16:31:37.793Z,4.20
2017-11-17T16:34:05.288Z,4.20
2017-11-17T16:36:33.537Z,4.30
2017-11-17T16:39:01.065Z,4.30
2017-11-17T16:41:28.559Z,4.30
2017-11-17T16:43:56.852Z,4.30
2017-11-17T16:46:25.257Z,4.30
2017-11-17T16:48:52.751Z,4.20
2017-11-17T16:51:20.269Z,4.40
2017-11-17T16:53:48.555Z,4.40
2017-11-17T16:56:16.042Z,4.50
2017-11-17T16:58:43.564Z,4.50
2017-11-17T17:01:11.046Z,4.50
2017-11-17T17:03:38.542Z,4.50
2017-11-17T17:06:06.802Z,4.50
2017-11-17T17:08:34.301Z,4.50
2017-11-17T17:11:01.772Z,4.50
2017-11-17T17:13:29.256Z,4.40
2017-11-17T17:15:56.767Z,4.40
2017-11-17T17:18:25.030Z,4.40
2017-11-17T17:20:53.294Z,4.40
2017-11-17T17:23:20.777Z,4.40
2017-11-17T17:25:49.057Z,4.40
2017-11-17T17:28:16.635Z,4.40
2017-11-17T17:30:44.138Z,4.30
2017-11-17T17:33:11.624Z,4.30
2017-11-17T17:35:39.881Z,4.40
2017-11-17T17:38:07.381Z,4.30
2017-11-17T17:40:34.913Z,4.40
2017-11-17T17:43:03.170Z,4.40
2017-11-17T17:45:30.660Z,4.40
2017-11-17T17:47:58.150Z,4.30
2017-11-17T17:50:25.645Z,4.30
2017-11-17T17:52:53.149Z,4.40
2017-11-17T17:55:20.647Z,4.40
2017-11-17T17:57:48.248Z,4.30
2017-11-17T18:00:16.489Z,4.30
2017-11-17T18:02:43.965Z,4.30
2017-11-17T18:05:11.508Z,4.30
2017-11-17T18:07:38.991Z,4.30
2017-11-17T18:10:07.379Z,4.40
2017-11-17T18:12:35.626Z,4.40
2017-11-17T18:15:03.870Z,4.40
2017-11-17T18:17:31.346Z,4.40
2017-11-17T18:19:58.830Z,4.40
2017-11-17T18:22:28.057Z,4.30
2017-11-17T18:27:50.062Z,4.30
2017-11-17T18:30:17.552Z,4.30
2017-11-17T18:32:45.041Z,4.40
2017-11-17T18:35:12.558Z,4.40
2017-11-17T18:37:41.620Z,4.40
2017-11-17T18:40:09.165Z,4.30
2017-11-17T18:42:36.628Z,4.40
2017-11-17T18:45:04.136Z,4.40
2017-11-17T18:47:32.393Z,4.40
2017-11-17T18:49:59.963Z,4.40
2017-11-17T18:52:28.272Z,4.40
2017-11-17T18:54:55.714Z,4.40
2017-11-17T18:57:23.249Z,4.40
2017-11-17T18:59:50.705Z,4.40
2017-11-17T19:02:25.045Z,4.40
2017-11-17T19:04:53.290Z,4.40
2017-11-17T19:07:20.831Z,4.30
2017-11-17T19:09:48.358Z,4.40
2017-11-17T19:12:15.858Z,4.40
2017-11-17T19:14:44.292Z,4.40
2017-11-17T19:17:11.739Z,4.30
2017-11-17T19:19:39.262Z,4.40
2017-11-17T19:22:06.765Z,4.40
2017-11-17T19:24:34.240Z,4.40
2017-11-17T19:27:01.738Z,4.40
2017-11-17T19:29:29.260Z,4.40
2017-11-17T19:31:56.758Z,4.40
2017-11-17T19:34:24.259Z,4.30
2017-11-17T19:36:52.911Z,4.30
2017-11-17T19:39:21.437Z,4.30
2017-11-17T19:41:48.947Z,4.30
2017-11-17T19:44:17.253Z,4.30
2017-11-17T19:46:44.809Z,4.30
2017-11-17T19:49:12.345Z,4.30
2017-11-17T19:51:40.646Z,4.30
2017-11-17T19:54:08.137Z,4.40
2017-11-17T19:56:35.611Z,4.40
2017-11-17T19:59:03.446Z,4.40
2017-11-17T20:01:30.981Z,4.30
2017-11-17T20:03:59.233Z,4.30
2017-11-17T20:06:26.777Z,4.30
2017-11-17T20:08:55.794Z,4.30
2017-11-17T20:11:24.034Z,4.30
2017-11-17T20:13:51.556Z,4.30
2017-11-17T20:16:19.021Z,4.30
2017-11-17T20:18:46.552Z,4.30
2017-11-17T20:21:14.855Z,4.30
2017-11-17T20:23:42.524Z,4.30
2017-11-17T20:26:10.066Z,4.30
2017-11-17T20:28:37.551Z,4.30
2017-11-17T20:31:05.030Z,4.30
2017-11-17T20:33:32.557Z,4.30
2017-11-17T20:36:00.057Z,4.30
2017-11-17T20:38:27.549Z,4.30
2017-11-17T20:40:55.866Z,4.30
2017-11-17T20:43:23.336Z,4.30
2017-11-17T20:45:50.837Z,4.30
2017-11-17T20:48:19.100Z,4.30
2017-11-17T20:50:48.184Z,4.30
2017-11-17T20:53:15.660Z,4.30
2017-11-17T20:55:43.931Z,4.30
2017-11-17T20:58:12.204Z,4.30
2017-11-17T21:00:40.487Z,4.30
2017-11-17T21:03:07.938Z,4.30
2017-11-17T21:05:35.505Z,4.30
2017-11-17T21:08:04.749Z,4.30
2017-11-17T21:10:32.261Z,4.30
2017-11-17T21:13:00.511Z,4.30
2017-11-17T21:15:28.057Z,4.30
2017-11-17T21:17:57.737Z,4.30
2017-11-17T21:20:25.234Z,4.30
2017-11-17T21:22:52.706Z,4.30
2017-11-17T21:25:20.213Z,4.30
2017-11-17T21:27:47.697Z,4.30
2017-11-17T21:30:15.239Z,4.30
2017-11-17T21:32:42.743Z,4.30
2017-11-17T21:35:11.016Z,4.30
2017-11-17T21:37:38.559Z,4.30
2017-11-17T21:40:06.047Z,4.30
2017-11-17T21:42:34.328Z,4.30
2017-11-17T21:45:02.570Z,4.30
2017-11-17T21:47:30.065Z,4.30
2017-11-17T21:49:58.331Z,4.30
2017-11-17T21:52:26.590Z,4.20
2017-11-17T21:54:54.534Z,4.20
2017-11-17T21:57:22.031Z,4.30
2017-11-17T21:59:49.618Z,4.20
2017-11-17T22:02:17.123Z,4.20
2017-11-17T22:04:44.592Z,4.20
2017-11-17T22:07:12.078Z,4.20
2017-11-17T22:09:40.319Z,4.20
2017-11-17T22:12:07.815Z,4.20
2017-11-17T22:14:36.081Z,4.30
2017-11-17T22:17:04.330Z,4.30
2017-11-17T22:19:31.823Z,4.30
2017-11-17T22:22:00.115Z,4.30
2017-11-17T22:24:27.589Z,4.30
2017-11-17T22:26:55.057Z,4.30
2017-11-17T22:29:22.658Z,4.30
2017-11-17T22:31:50.897Z,4.30
2017-11-17T22:34:18.431Z,4.30
2017-11-17T22:36:45.919Z,4.30
2017-11-17T22:39:13.418Z,4.30
2017-11-17T22:41:41.668Z,4.30
2017-11-17T22:44:09.167Z,4.30
2017-11-17T22:46:37.441Z,4.30
2017-11-17T22:49:04.955Z,4.30
2017-11-17T22:51:32.432Z,4.30
2017-11-17T22:53:59.945Z,4.40
2017-11-17T22:56:27.426Z,4.30
2017-11-17T22:58:54.903Z,4.40
2017-11-17T23:01:22.402Z,4.40
2017-11-17T23:03:49.873Z,4.30
2017-11-17T23:06:17.349Z,4.30
2017-11-17T23:08:44.865Z,4.30
2017-11-17T23:11:12.356Z,4.30
2017-11-17T23:13:39.837Z,4.40
2017-11-17T23:16:07.318Z,4.40
2017-11-17T23:18:35.565Z,4.40
2017-11-17T23:21:03.063Z,4.40
2017-11-17T23:23:31.309Z,4.40
2017-11-17T23:25:58.809Z,4.40
2017-11-17T23:28:26.279Z,4.40
2017-11-17T23:30:53.774Z,4.40
2017-11-17T23:33:21.260Z,4.40
2017-11-17T23:35:49.528Z,4.40
2017-11-17T23:38:16.991Z,4.30
2017-11-17T23:40:45.253Z,4.30
2017-11-17T23:43:12.756Z,4.30
2017-11-17T23:45:40.236Z,4.30
2017-11-17T23:48:07.749Z,4.30
2017-11-17T23:50:36.010Z,4.30
2017-11-17T23:53:03.480Z,4.30
2017-11-17T23:55:31.735Z,4.30
2017-11-17T23:57:59.225Z,4.30
